Palo Pinto, TX (76484)

1:40 AM CDT on October 31, 2014 (GMT -0500)
North Lakeview Drive | Change Station
CLOSE
Current Station
Personal Weather Station
Location: Palo Pinto, TX
Elevation: 909 ft
Nearby Weather Stations

Elev 909 ft 32.65 °N, 98.30 °W | Updated 4 seconds ago

Clear
Clear
57.4 °F
Feels Like 57.4 °F
N
0.0
Wind Variable Wind from East
Gusts 0.0 mph

Today
High -- | Low -- °F
--% Chance of Precip.
Yesterday
High -- | Low -- °F
Precip. -- in
7:50 AM 6:43 PM
First Quarter, 52% visible
Pressure 30.18 in
Visibility 10.0 miles
Clouds Clear
Dew Point 48 °F
Humidity 72%
Rainfall 0.00 in
Snow Depth Not available.
UV 0 out of 12
Pollen 3.70 out of 12
Air Quality Not available.
Flu Activity Not available.
METAR KMWL 310553Z AUTO 35003KT 10SM CLR 14/11 A3020 RMK AO2 SLP218 T01390106 10200 20139 402720106 51017

More Conditions Fewer Conditions

Pressure 30.18 in
Visibility 10.0 miles
Clouds Clear
Dew Point 48 °F
Humidity 72%
Rainfall 0.00 in
Snow Depth Not available.
UV 0 out of 12
Pollen 3.70 out of 12
Air Quality Not available.
Flu Activity Not available.
METAR KMWL 310553Z AUTO 35003KT 10SM CLR 14/11 A3020 RMK AO2 SLP218 T01390106 10200 20139 402720106 51017

More Conditions Fewer Conditions

Nowcast | as of 11:43 PM CDT on October 30, 2014

Scattered areas of light to moderate rain continue south of a line from Comanche to Waco tonight. This rain is moving south at about 30 mph. Rainfall accumulations up to a tenth of an inch can be expected through 2 am. Otherwise...a cold front will continue to slowly move south across the region. Expect clearing skies...lowering dew points...and north winds at 5-10 mph behind the front.

×

10-Day Weather Forecast

Almanac

Astronomy

Oct. 31, 2014 Rise Set
Actual Time
Civil Twilight
Nautical Twilight
Astronomical Twilight
Moon
Length of Visible Light
Length of Day
Tomorrow will be .
, % of the Moon is Illuminated

Today's Extremes

State Highs State Lows

Community

WunderPhotos

Upload Photos

1,766,571 photos uploaded!

WunderBlogs® & News

Nearby

Air Quality

  Air Quality AQ Index Pollutant
Not available.

Snow Depth

Station Depth Elevation

Earthquake Activity

City Distance Mag. Time & Date
Minimum magnitude displayed is 2.5.

Coastal Water Temperatures

Place Temperature

Nearby Weather Stations